sensor_id;sensor_type;location;lat;lon;timestamp;P1;durP1;ratioP1;P2;durP2;ratioP2
11933;SDS011;6026;48.784;9.198;2023-06-19T00:00:09;0.73;;;0.73;;
11933;SDS011;6026;48.784;9.198;2023-06-19T00:02:40;0.80;;;0.80;;
11933;SDS011;6026;48.784;9.198;2023-06-19T00:05:06;0.70;;;0.70;;
11933;SDS011;6026;48.784;9.198;2023-06-19T00:07:33;0.70;;;0.70;;
11933;SDS011;6026;48.784;9.198;2023-06-19T00:09:59;0.80;;;0.80;;
11933;SDS011;6026;48.784;9.198;2023-06-19T00:12:25;0.70;;;0.70;;
11933;SDS011;6026;48.784;9.198;2023-06-19T00:14:50;0.90;;;0.90;;
11933;SDS011;6026;48.784;9.198;2023-06-19T00:17:16;0.70;;;0.70;;
11933;SDS011;6026;48.784;9.198;2023-06-19T00:19:42;0.85;;;0.85;;
11933;SDS011;6026;48.784;9.198;2023-06-19T00:22:08;0.77;;;0.77;;
11933;SDS011;6026;48.784;9.198;2023-06-19T00:24:33;0.75;;;0.75;;
11933;SDS011;6026;48.784;9.198;2023-06-19T00:26:59;0.70;;;0.70;;
11933;SDS011;6026;48.784;9.198;2023-06-19T00:29:31;0.80;;;0.80;;
11933;SDS011;6026;48.784;9.198;2023-06-19T00:31:58;0.82;;;0.82;;
11933;SDS011;6026;48.784;9.198;2023-06-19T00:34:24;0.80;;;0.80;;
11933;SDS011;6026;48.784;9.198;2023-06-19T00:36:50;0.80;;;0.80;;
11933;SDS011;6026;48.784;9.198;2023-06-19T00:39:19;0.90;;;0.90;;
11933;SDS011;6026;48.784;9.198;2023-06-19T00:41:45;0.63;;;0.63;;
11933;SDS011;6026;48.784;9.198;2023-06-19T00:44:13;0.77;;;0.77;;
11933;SDS011;6026;48.784;9.198;2023-06-19T00:46:39;0.80;;;0.80;;
11933;SDS011;6026;48.784;9.198;2023-06-19T00:49:06;0.77;;;0.77;;
11933;SDS011;6026;48.784;9.198;2023-06-19T00:51:33;0.80;;;0.80;;
11933;SDS011;6026;48.784;9.198;2023-06-19T00:53:59;0.73;;;0.73;;
11933;SDS011;6026;48.784;9.198;2023-06-19T00:56:24;0.73;;;0.73;;
11933;SDS011;6026;48.784;9.198;2023-06-19T00:58:50;0.82;;;0.82;;
11933;SDS011;6026;48.784;9.198;2023-06-19T01:01:17;0.80;;;0.80;;
11933;SDS011;6026;48.784;9.198;2023-06-19T01:03:46;0.90;;;0.90;;
11933;SDS011;6026;48.784;9.198;2023-06-19T01:06:15;0.80;;;0.80;;
11933;SDS011;6026;48.784;9.198;2023-06-19T01:11:27;0.80;;;0.80;;
11933;SDS011;6026;48.784;9.198;2023-06-19T01:16:31;0.70;;;0.70;;
11933;SDS011;6026;48.784;9.198;2023-06-19T01:18:57;0.80;;;0.80;;
11933;SDS011;6026;48.784;9.198;2023-06-19T01:21:23;0.90;;;0.90;;
11933;SDS011;6026;48.784;9.198;2023-06-19T01:23:48;0.80;;;0.80;;
11933;SDS011;6026;48.784;9.198;2023-06-19T01:26:15;0.80;;;0.80;;
11933;SDS011;6026;48.784;9.198;2023-06-19T01:28:42;0.90;;;0.90;;
11933;SDS011;6026;48.784;9.198;2023-06-19T01:31:15;0.73;;;0.73;;
11933;SDS011;6026;48.784;9.198;2023-06-19T01:33:46;0.90;;;0.90;;
11933;SDS011;6026;48.784;9.198;2023-06-19T01:36:15;0.70;;;0.70;;
11933;SDS011;6026;48.784;9.198;2023-06-19T01:38:42;0.60;;;0.60;;
11933;SDS011;6026;48.784;9.198;2023-06-19T01:41:10;0.60;;;0.60;;
11933;SDS011;6026;48.784;9.198;2023-06-19T01:43:36;0.63;;;0.63;;
11933;SDS011;6026;48.784;9.198;2023-06-19T01:46:03;0.80;;;0.80;;
11933;SDS011;6026;48.784;9.198;2023-06-19T01:48:29;0.80;;;0.80;;
11933;SDS011;6026;48.784;9.198;2023-06-19T01:50:54;0.70;;;0.70;;
11933;SDS011;6026;48.784;9.198;2023-06-19T01:53:20;0.70;;;0.70;;
11933;SDS011;6026;48.784;9.198;2023-06-19T01:55:46;0.70;;;0.70;;
11933;SDS011;6026;48.784;9.198;2023-06-19T01:58:11;0.70;;;0.70;;
11933;SDS011;6026;48.784;9.198;2023-06-19T02:00:37;0.87;;;0.87;;
11933;SDS011;6026;48.784;9.198;2023-06-19T02:03:03;0.80;;;0.80;;
11933;SDS011;6026;48.784;9.198;2023-06-19T02:05:30;0.60;;;0.60;;
11933;SDS011;6026;48.784;9.198;2023-06-19T02:07:56;0.60;;;0.60;;
11933;SDS011;6026;48.784;9.198;2023-06-19T02:10:21;0.73;;;0.73;;
11933;SDS011;6026;48.784;9.198;2023-06-19T02:12:47;0.70;;;0.70;;
11933;SDS011;6026;48.784;9.198;2023-06-19T02:15:12;0.63;;;0.63;;
11933;SDS011;6026;48.784;9.198;2023-06-19T02:17:38;0.70;;;0.70;;
11933;SDS011;6026;48.784;9.198;2023-06-19T02:20:04;0.70;;;0.70;;
11933;SDS011;6026;48.784;9.198;2023-06-19T02:22:34;0.50;;;0.50;;
11933;SDS011;6026;48.784;9.198;2023-06-19T02:25:00;0.80;;;0.80;;
11933;SDS011;6026;48.784;9.198;2023-06-19T02:27:26;0.70;;;0.70;;
11933;SDS011;6026;48.784;9.198;2023-06-19T02:29:51;0.90;;;0.90;;
11933;SDS011;6026;48.784;9.198;2023-06-19T02:32:17;0.73;;;0.73;;
11933;SDS011;6026;48.784;9.198;2023-06-19T02:34:42;0.80;;;0.80;;
11933;SDS011;6026;48.784;9.198;2023-06-19T02:37:08;0.80;;;0.80;;
11933;SDS011;6026;48.784;9.198;2023-06-19T02:39:33;0.80;;;0.80;;
11933;SDS011;6026;48.784;9.198;2023-06-19T02:41:59;0.80;;;0.80;;
11933;SDS011;6026;48.784;9.198;2023-06-19T02:44:25;0.60;;;0.60;;
11933;SDS011;6026;48.784;9.198;2023-06-19T02:46:50;0.93;;;0.93;;
11933;SDS011;6026;48.784;9.198;2023-06-19T02:49:16;0.70;;;0.70;;
11933;SDS011;6026;48.784;9.198;2023-06-19T02:51:41;0.73;;;0.73;;
11933;SDS011;6026;48.784;9.198;2023-06-19T02:54:07;0.73;;;0.73;;
11933;SDS011;6026;48.784;9.198;2023-06-19T02:56:32;0.73;;;0.73;;
11933;SDS011;6026;48.784;9.198;2023-06-19T02:58:58;0.70;;;0.70;;
11933;SDS011;6026;48.784;9.198;2023-06-19T03:01:24;0.60;;;0.60;;
11933;SDS011;6026;48.784;9.198;2023-06-19T03:03:49;0.50;;;0.50;;
11933;SDS011;6026;48.784;9.198;2023-06-19T03:06:17;0.80;;;0.80;;
11933;SDS011;6026;48.784;9.198;2023-06-19T03:08:43;0.73;;;0.73;;
11933;SDS011;6026;48.784;9.198;2023-06-19T03:11:08;0.60;;;0.60;;
11933;SDS011;6026;48.784;9.198;2023-06-19T03:13:47;0.63;;;0.63;;
11933;SDS011;6026;48.784;9.198;2023-06-19T03:16:15;0.60;;;0.60;;
11933;SDS011;6026;48.784;9.198;2023-06-19T03:18:41;0.50;;;0.50;;
11933;SDS011;6026;48.784;9.198;2023-06-19T03:21:09;0.63;;;0.63;;
11933;SDS011;6026;48.784;9.198;2023-06-19T03:23:35;0.50;;;0.50;;
11933;SDS011;6026;48.784;9.198;2023-06-19T03:26:01;0.80;;;0.80;;
11933;SDS011;6026;48.784;9.198;2023-06-19T03:28:27;0.60;;;0.60;;
11933;SDS011;6026;48.784;9.198;2023-06-19T03:30:52;0.80;;;0.80;;
11933;SDS011;6026;48.784;9.198;2023-06-19T03:33:18;0.73;;;0.73;;
11933;SDS011;6026;48.784;9.198;2023-06-19T03:35:43;0.70;;;0.70;;
11933;SDS011;6026;48.784;9.198;2023-06-19T03:38:09;0.50;;;0.50;;
11933;SDS011;6026;48.784;9.198;2023-06-19T03:40:35;0.70;;;0.70;;
11933;SDS011;6026;48.784;9.198;2023-06-19T03:43:00;0.70;;;0.70;;
11933;SDS011;6026;48.784;9.198;2023-06-19T03:45:26;0.63;;;0.63;;
11933;SDS011;6026;48.784;9.198;2023-06-19T03:47:51;0.60;;;0.60;;
11933;SDS011;6026;48.784;9.198;2023-06-19T03:50:17;0.63;;;0.63;;
11933;SDS011;6026;48.784;9.198;2023-06-19T03:52:43;0.70;;;0.70;;
11933;SDS011;6026;48.784;9.198;2023-06-19T03:55:08;0.67;;;0.67;;
11933;SDS011;6026;48.784;9.198;2023-06-19T03:57:34;0.80;;;0.80;;
11933;SDS011;6026;48.784;9.198;2023-06-19T03:59:59;0.70;;;0.70;;
11933;SDS011;6026;48.784;9.198;2023-06-19T04:02:25;0.80;;;0.80;;
11933;SDS011;6026;48.784;9.198;2023-06-19T04:04:51;0.53;;;0.53;;
11933;SDS011;6026;48.784;9.198;2023-06-19T04:07:16;0.60;;;0.60;;
11933;SDS011;6026;48.784;9.198;2023-06-19T04:09:42;0.80;;;0.80;;
11933;SDS011;6026;48.784;9.198;2023-06-19T04:12:07;0.60;;;0.60;;
11933;SDS011;6026;48.784;9.198;2023-06-19T04:14:33;0.70;;;0.70;;
11933;SDS011;6026;48.784;9.198;2023-06-19T04:16:59;0.67;;;0.67;;
11933;SDS011;6026;48.784;9.198;2023-06-19T04:19:24;0.70;;;0.70;;
11933;SDS011;6026;48.784;9.198;2023-06-19T04:21:50;0.70;;;0.70;;
11933;SDS011;6026;48.784;9.198;2023-06-19T04:24:15;0.60;;;0.60;;
11933;SDS011;6026;48.784;9.198;2023-06-19T04:26:41;0.80;;;0.80;;
11933;SDS011;6026;48.784;9.198;2023-06-19T04:29:07;0.50;;;0.50;;
11933;SDS011;6026;48.784;9.198;2023-06-19T04:31:33;0.60;;;0.60;;
11933;SDS011;6026;48.784;9.198;2023-06-19T04:34:05;0.40;;;0.40;;
11933;SDS011;6026;48.784;9.198;2023-06-19T04:36:31;0.70;;;0.70;;
11933;SDS011;6026;48.784;9.198;2023-06-19T04:38:56;0.80;;;0.80;;
11933;SDS011;6026;48.784;9.198;2023-06-19T04:41:23;0.67;;;0.67;;
11933;SDS011;6026;48.784;9.198;2023-06-19T04:43:48;0.70;;;0.70;;
11933;SDS011;6026;48.784;9.198;2023-06-19T04:46:14;0.70;;;0.70;;
11933;SDS011;6026;48.784;9.198;2023-06-19T04:48:45;0.80;;;0.80;;
11933;SDS011;6026;48.784;9.198;2023-06-19T04:51:15;0.70;;;0.70;;
11933;SDS011;6026;48.784;9.198;2023-06-19T04:53:45;1.00;;;1.00;;
11933;SDS011;6026;48.784;9.198;2023-06-19T04:56:10;0.83;;;0.83;;
11933;SDS011;6026;48.784;9.198;2023-06-19T04:58:36;0.63;;;0.63;;
11933;SDS011;6026;48.784;9.198;2023-06-19T05:01:08;0.57;;;0.57;;
11933;SDS011;6026;48.784;9.198;2023-06-19T05:03:35;0.67;;;0.67;;
11933;SDS011;6026;48.784;9.198;2023-06-19T05:06:00;0.70;;;0.70;;
11933;SDS011;6026;48.784;9.198;2023-06-19T05:08:26;0.80;;;0.80;;
11933;SDS011;6026;48.784;9.198;2023-06-19T05:10:51;0.80;;;0.80;;
11933;SDS011;6026;48.784;9.198;2023-06-19T05:13:18;0.80;;;0.80;;
11933;SDS011;6026;48.784;9.198;2023-06-19T05:15:44;0.70;;;0.70;;
11933;SDS011;6026;48.784;9.198;2023-06-19T05:18:09;0.70;;;0.70;;
11933;SDS011;6026;48.784;9.198;2023-06-19T05:20:35;0.70;;;0.70;;
11933;SDS011;6026;48.784;9.198;2023-06-19T05:23:00;0.80;;;0.80;;
11933;SDS011;6026;48.784;9.198;2023-06-19T05:25:26;0.57;;;0.57;;
11933;SDS011;6026;48.784;9.198;2023-06-19T05:27:52;0.70;;;0.70;;
11933;SDS011;6026;48.784;9.198;2023-06-19T05:30:18;0.80;;;0.80;;
11933;SDS011;6026;48.784;9.198;2023-06-19T05:32:43;0.70;;;0.70;;
11933;SDS011;6026;48.784;9.198;2023-06-19T05:35:09;1.87;;;1.87;;
11933;SDS011;6026;48.784;9.198;2023-06-19T05:37:35;0.70;;;0.70;;
11933;SDS011;6026;48.784;9.198;2023-06-19T05:40:00;0.70;;;0.70;;
11933;SDS011;6026;48.784;9.198;2023-06-19T05:42:26;0.63;;;0.63;;
11933;SDS011;6026;48.784;9.198;2023-06-19T05:44:51;0.60;;;0.60;;
11933;SDS011;6026;48.784;9.198;2023-06-19T05:47:17;0.90;;;0.90;;
11933;SDS011;6026;48.784;9.198;2023-06-19T05:49:45;0.80;;;0.80;;
11933;SDS011;6026;48.784;9.198;2023-06-19T05:52:11;0.70;;;0.70;;
11933;SDS011;6026;48.784;9.198;2023-06-19T05:54:37;0.70;;;0.70;;
11933;SDS011;6026;48.784;9.198;2023-06-19T05:57:03;0.70;;;0.70;;
11933;SDS011;6026;48.784;9.198;2023-06-19T05:59:28;0.60;;;0.60;;
11933;SDS011;6026;48.784;9.198;2023-06-19T06:01:54;0.82;;;0.82;;
11933;SDS011;6026;48.784;9.198;2023-06-19T06:04:20;0.80;;;0.80;;
11933;SDS011;6026;48.784;9.198;2023-06-19T06:06:47;0.77;;;0.77;;
11933;SDS011;6026;48.784;9.198;2023-06-19T06:09:12;0.80;;;0.80;;
11933;SDS011;6026;48.784;9.198;2023-06-19T06:11:39;0.80;;;0.80;;
11933;SDS011;6026;48.784;9.198;2023-06-19T06:14:05;0.70;;;0.70;;
11933;SDS011;6026;48.784;9.198;2023-06-19T06:16:30;0.73;;;0.73;;
11933;SDS011;6026;48.784;9.198;2023-06-19T06:18:56;1.27;;;1.27;;
11933;SDS011;6026;48.784;9.198;2023-06-19T06:21:21;0.60;;;0.60;;
11933;SDS011;6026;48.784;9.198;2023-06-19T06:23:47;0.73;;;0.73;;
11933;SDS011;6026;48.784;9.198;2023-06-19T06:26:13;0.70;;;0.70;;
11933;SDS011;6026;48.784;9.198;2023-06-19T06:28:39;0.80;;;0.80;;
11933;SDS011;6026;48.784;9.198;2023-06-19T06:31:05;0.68;;;0.68;;
11933;SDS011;6026;48.784;9.198;2023-06-19T06:33:30;0.80;;;0.80;;
11933;SDS011;6026;48.784;9.198;2023-06-19T06:35:57;0.90;;;0.90;;
11933;SDS011;6026;48.784;9.198;2023-06-19T06:38:23;0.88;;;0.88;;
11933;SDS011;6026;48.784;9.198;2023-06-19T06:40:48;0.93;;;0.93;;
11933;SDS011;6026;48.784;9.198;2023-06-19T06:43:14;1.00;;;1.00;;
11933;SDS011;6026;48.784;9.198;2023-06-19T06:45:39;1.02;;;1.02;;
11933;SDS011;6026;48.784;9.198;2023-06-19T06:48:07;1.10;;;1.10;;
11933;SDS011;6026;48.784;9.198;2023-06-19T06:50:33;1.10;;;1.10;;
11933;SDS011;6026;48.784;9.198;2023-06-19T06:52:59;1.10;;;1.10;;
11933;SDS011;6026;48.784;9.198;2023-06-19T06:55:25;1.10;;;1.10;;
11933;SDS011;6026;48.784;9.198;2023-06-19T06:57:51;1.20;;;1.20;;
11933;SDS011;6026;48.784;9.198;2023-06-19T07:00:16;1.10;;;1.10;;
11933;SDS011;6026;48.784;9.198;2023-06-19T07:02:43;1.10;;;1.10;;
11933;SDS011;6026;48.784;9.198;2023-06-19T07:05:09;1.08;;;1.08;;
11933;SDS011;6026;48.784;9.198;2023-06-19T07:07:35;1.10;;;1.10;;
11933;SDS011;6026;48.784;9.198;2023-06-19T07:10:01;1.00;;;1.00;;
11933;SDS011;6026;48.784;9.198;2023-06-19T07:12:27;0.88;;;0.88;;
11933;SDS011;6026;48.784;9.198;2023-06-19T07:14:53;0.90;;;0.90;;
11933;SDS011;6026;48.784;9.198;2023-06-19T07:17:19;1.00;;;1.00;;
11933;SDS011;6026;48.784;9.198;2023-06-19T07:19:45;0.90;;;0.90;;
11933;SDS011;6026;48.784;9.198;2023-06-19T07:22:10;0.90;;;0.90;;
11933;SDS011;6026;48.784;9.198;2023-06-19T07:24:36;0.93;;;0.93;;
11933;SDS011;6026;48.784;9.198;2023-06-19T07:27:01;1.00;;;1.00;;
11933;SDS011;6026;48.784;9.198;2023-06-19T07:29:27;0.90;;;0.90;;
11933;SDS011;6026;48.784;9.198;2023-06-19T07:31:53;1.00;;;1.00;;
11933;SDS011;6026;48.784;9.198;2023-06-19T07:34:18;0.90;;;0.90;;
11933;SDS011;6026;48.784;9.198;2023-06-19T07:36:44;0.90;;;0.90;;
11933;SDS011;6026;48.784;9.198;2023-06-19T07:39:09;0.98;;;0.98;;
11933;SDS011;6026;48.784;9.198;2023-06-19T07:41:36;1.00;;;1.00;;
11933;SDS011;6026;48.784;9.198;2023-06-19T07:44:01;1.10;;;1.10;;
11933;SDS011;6026;48.784;9.198;2023-06-19T07:46:27;1.10;;;1.10;;
11933;SDS011;6026;48.784;9.198;2023-06-19T07:48:53;1.20;;;1.20;;
11933;SDS011;6026;48.784;9.198;2023-06-19T07:51:18;1.30;;;1.30;;
11933;SDS011;6026;48.784;9.198;2023-06-19T07:53:44;1.30;;;1.30;;
11933;SDS011;6026;48.784;9.198;2023-06-19T07:56:09;1.30;;;1.30;;
11933;SDS011;6026;48.784;9.198;2023-06-19T07:58:35;1.20;;;1.20;;
11933;SDS011;6026;48.784;9.198;2023-06-19T08:01:00;1.10;;;1.10;;
11933;SDS011;6026;48.784;9.198;2023-06-19T08:03:26;1.10;;;1.10;;
11933;SDS011;6026;48.784;9.198;2023-06-19T08:05:52;1.10;;;1.10;;
11933;SDS011;6026;48.784;9.198;2023-06-19T08:08:17;1.17;;;1.17;;
11933;SDS011;6026;48.784;9.198;2023-06-19T08:10:43;1.20;;;1.20;;
11933;SDS011;6026;48.784;9.198;2023-06-19T08:13:09;1.20;;;1.20;;
11933;SDS011;6026;48.784;9.198;2023-06-19T08:15:36;1.20;;;1.20;;
11933;SDS011;6026;48.784;9.198;2023-06-19T08:18:02;1.30;;;1.30;;
11933;SDS011;6026;48.784;9.198;2023-06-19T08:20:28;1.30;;;1.30;;
11933;SDS011;6026;48.784;9.198;2023-06-19T08:22:53;1.30;;;1.30;;
11933;SDS011;6026;48.784;9.198;2023-06-19T08:25:19;1.20;;;1.20;;
11933;SDS011;6026;48.784;9.198;2023-06-19T08:27:44;1.08;;;1.08;;
11933;SDS011;6026;48.784;9.198;2023-06-19T08:30:10;1.10;;;1.10;;
11933;SDS011;6026;48.784;9.198;2023-06-19T08:32:36;1.10;;;1.10;;
11933;SDS011;6026;48.784;9.198;2023-06-19T08:35:02;1.10;;;1.10;;
11933;SDS011;6026;48.784;9.198;2023-06-19T08:37:28;1.00;;;1.00;;
11933;SDS011;6026;48.784;9.198;2023-06-19T08:39:54;1.10;;;1.10;;
11933;SDS011;6026;48.784;9.198;2023-06-19T08:42:21;1.00;;;1.00;;
11933;SDS011;6026;48.784;9.198;2023-06-19T08:44:47;1.00;;;1.00;;
11933;SDS011;6026;48.784;9.198;2023-06-19T08:47:13;1.00;;;1.00;;
11933;SDS011;6026;48.784;9.198;2023-06-19T08:49:39;1.08;;;1.08;;
11933;SDS011;6026;48.784;9.198;2023-06-19T08:52:05;1.00;;;1.00;;
11933;SDS011;6026;48.784;9.198;2023-06-19T08:54:31;1.10;;;1.10;;
11933;SDS011;6026;48.784;9.198;2023-06-19T08:57:00;1.10;;;1.10;;
11933;SDS011;6026;48.784;9.198;2023-06-19T08:59:27;1.20;;;1.20;;
11933;SDS011;6026;48.784;9.198;2023-06-19T09:01:54;1.27;;;1.27;;
11933;SDS011;6026;48.784;9.198;2023-06-19T09:04:24;1.40;;;1.40;;
11933;SDS011;6026;48.784;9.198;2023-06-19T09:06:56;1.50;;;1.50;;
11933;SDS011;6026;48.784;9.198;2023-06-19T09:09:27;1.52;;;1.52;;
11933;SDS011;6026;48.784;9.198;2023-06-19T09:11:56;1.60;;;1.60;;
11933;SDS011;6026;48.784;9.198;2023-06-19T09:14:36;1.80;;;1.70;;
11933;SDS011;6026;48.784;9.198;2023-06-19T09:17:06;2.00;;;1.90;;
11933;SDS011;6026;48.784;9.198;2023-06-19T09:19:35;2.17;;;2.08;;
11933;SDS011;6026;48.784;9.198;2023-06-19T09:22:04;2.20;;;2.10;;
11933;SDS011;6026;48.784;9.198;2023-06-19T09:24:37;2.30;;;2.20;;
11933;SDS011;6026;48.784;9.198;2023-06-19T09:27:08;2.40;;;2.30;;
11933;SDS011;6026;48.784;9.198;2023-06-19T09:29:42;2.50;;;2.40;;
11933;SDS011;6026;48.784;9.198;2023-06-19T09:32:22;2.70;;;2.60;;
11933;SDS011;6026;48.784;9.198;2023-06-19T09:34:49;2.67;;;2.58;;
11933;SDS011;6026;48.784;9.198;2023-06-19T09:37:26;2.60;;;2.50;;
11933;SDS011;6026;48.784;9.198;2023-06-19T09:40:02;2.60;;;2.50;;
11933;SDS011;6026;48.784;9.198;2023-06-19T09:42:36;2.95;;;2.78;;
11933;SDS011;6026;48.784;9.198;2023-06-19T09:45:04;2.95;;;2.75;;
11933;SDS011;6026;48.784;9.198;2023-06-19T09:47:36;3.25;;;3.05;;
11933;SDS011;6026;48.784;9.198;2023-06-19T09:50:12;2.72;;;2.63;;
11933;SDS011;6026;48.784;9.198;2023-06-19T09:52:42;2.38;;;2.28;;
11933;SDS011;6026;48.784;9.198;2023-06-19T09:55:09;2.40;;;2.30;;
11933;SDS011;6026;48.784;9.198;2023-06-19T09:57:40;2.20;;;2.10;;
11933;SDS011;6026;48.784;9.198;2023-06-19T10:00:07;2.10;;;2.00;;
11933;SDS011;6026;48.784;9.198;2023-06-19T10:02:42;1.80;;;1.70;;
11933;SDS011;6026;48.784;9.198;2023-06-19T10:05:11;1.60;;;1.60;;
11933;SDS011;6026;48.784;9.198;2023-06-19T10:07:40;1.70;;;1.70;;
11933;SDS011;6026;48.784;9.198;2023-06-19T10:10:08;1.92;;;1.83;;
11933;SDS011;6026;48.784;9.198;2023-06-19T10:12:48;1.80;;;1.70;;
11933;SDS011;6026;48.784;9.198;2023-06-19T10:17:59;1.85;;;1.75;;
11933;SDS011;6026;48.784;9.198;2023-06-19T10:20:35;1.80;;;1.70;;
11933;SDS011;6026;48.784;9.198;2023-06-19T10:23:06;2.00;;;1.90;;
11933;SDS011;6026;48.784;9.198;2023-06-19T10:25:33;1.90;;;1.80;;
11933;SDS011;6026;48.784;9.198;2023-06-19T10:28:00;2.00;;;1.90;;
11933;SDS011;6026;48.784;9.198;2023-06-19T10:30:26;1.98;;;1.88;;
11933;SDS011;6026;48.784;9.198;2023-06-19T10:32:54;2.00;;;1.90;;
11933;SDS011;6026;48.784;9.198;2023-06-19T10:35:20;2.10;;;2.00;;
11933;SDS011;6026;48.784;9.198;2023-06-19T10:37:49;1.92;;;1.83;;
11933;SDS011;6026;48.784;9.198;2023-06-19T10:40:16;2.00;;;1.90;;
11933;SDS011;6026;48.784;9.198;2023-06-19T10:42:42;1.90;;;1.80;;
11933;SDS011;6026;48.784;9.198;2023-06-19T10:45:09;1.80;;;1.70;;
11933;SDS011;6026;48.784;9.198;2023-06-19T10:47:41;1.80;;;1.70;;
11933;SDS011;6026;48.784;9.198;2023-06-19T10:50:16;1.63;;;1.63;;
11933;SDS011;6026;48.784;9.198;2023-06-19T10:52:42;1.80;;;1.70;;
11933;SDS011;6026;48.784;9.198;2023-06-19T10:55:09;1.52;;;1.52;;
11933;SDS011;6026;48.784;9.198;2023-06-19T10:57:35;1.58;;;1.58;;
11933;SDS011;6026;48.784;9.198;2023-06-19T11:00:01;1.50;;;1.50;;
11933;SDS011;6026;48.784;9.198;2023-06-19T11:02:35;1.40;;;1.40;;
11933;SDS011;6026;48.784;9.198;2023-06-19T11:05:02;1.40;;;1.40;;
11933;SDS011;6026;48.784;9.198;2023-06-19T11:07:29;1.30;;;1.30;;
11933;SDS011;6026;48.784;9.198;2023-06-19T11:09:57;1.30;;;1.30;;
11933;SDS011;6026;48.784;9.198;2023-06-19T11:12:23;1.30;;;1.30;;
11933;SDS011;6026;48.784;9.198;2023-06-19T11:14:49;1.30;;;1.30;;
11933;SDS011;6026;48.784;9.198;2023-06-19T11:17:15;1.40;;;1.40;;
11933;SDS011;6026;48.784;9.198;2023-06-19T11:19:43;1.27;;;1.27;;
11933;SDS011;6026;48.784;9.198;2023-06-19T11:22:09;1.40;;;1.40;;
11933;SDS011;6026;48.784;9.198;2023-06-19T11:24:36;1.40;;;1.40;;
11933;SDS011;6026;48.784;9.198;2023-06-19T11:27:02;1.40;;;1.40;;
11933;SDS011;6026;48.784;9.198;2023-06-19T11:29:31;1.40;;;1.40;;
11933;SDS011;6026;48.784;9.198;2023-06-19T11:32:09;1.40;;;1.40;;
11933;SDS011;6026;48.784;9.198;2023-06-19T11:34:38;1.40;;;1.40;;
11933;SDS011;6026;48.784;9.198;2023-06-19T11:37:14;1.40;;;1.40;;
11933;SDS011;6026;48.784;9.198;2023-06-19T11:39:41;1.40;;;1.40;;
11933;SDS011;6026;48.784;9.198;2023-06-19T11:42:12;1.40;;;1.40;;
11933;SDS011;6026;48.784;9.198;2023-06-19T11:44:56;1.40;;;1.40;;
11933;SDS011;6026;48.784;9.198;2023-06-19T11:47:31;1.40;;;1.40;;
11933;SDS011;6026;48.784;9.198;2023-06-19T11:49:57;1.42;;;1.42;;
11933;SDS011;6026;48.784;9.198;2023-06-19T11:52:23;1.40;;;1.40;;
11933;SDS011;6026;48.784;9.198;2023-06-19T11:54:49;1.40;;;1.40;;
11933;SDS011;6026;48.784;9.198;2023-06-19T11:57:14;1.40;;;1.40;;
11933;SDS011;6026;48.784;9.198;2023-06-19T11:59:40;1.50;;;1.50;;
11933;SDS011;6026;48.784;9.198;2023-06-19T12:02:06;1.50;;;1.50;;
11933;SDS011;6026;48.784;9.198;2023-06-19T12:04:33;1.40;;;1.40;;
11933;SDS011;6026;48.784;9.198;2023-06-19T12:06:58;1.40;;;1.40;;
11933;SDS011;6026;48.784;9.198;2023-06-19T12:09:24;1.40;;;1.40;;
11933;SDS011;6026;48.784;9.198;2023-06-19T12:11:50;1.40;;;1.40;;
11933;SDS011;6026;48.784;9.198;2023-06-19T12:14:16;1.33;;;1.33;;
11933;SDS011;6026;48.784;9.198;2023-06-19T12:16:43;1.30;;;1.30;;
11933;SDS011;6026;48.784;9.198;2023-06-19T12:19:10;1.30;;;1.30;;
11933;SDS011;6026;48.784;9.198;2023-06-19T12:21:35;1.30;;;1.30;;
11933;SDS011;6026;48.784;9.198;2023-06-19T12:24:01;1.30;;;1.30;;
11933;SDS011;6026;48.784;9.198;2023-06-19T12:26:27;1.20;;;1.20;;
11933;SDS011;6026;48.784;9.198;2023-06-19T12:28:53;1.20;;;1.20;;
11933;SDS011;6026;48.784;9.198;2023-06-19T12:31:18;1.20;;;1.20;;
11933;SDS011;6026;48.784;9.198;2023-06-19T12:33:44;1.30;;;1.30;;
11933;SDS011;6026;48.784;9.198;2023-06-19T12:36:12;1.30;;;1.30;;
11933;SDS011;6026;48.784;9.198;2023-06-19T12:38:39;1.30;;;1.30;;
11933;SDS011;6026;48.784;9.198;2023-06-19T12:41:05;1.30;;;1.30;;
11933;SDS011;6026;48.784;9.198;2023-06-19T12:43:31;1.30;;;1.30;;
11933;SDS011;6026;48.784;9.198;2023-06-19T12:45:57;1.30;;;1.30;;
11933;SDS011;6026;48.784;9.198;2023-06-19T12:48:24;1.30;;;1.30;;
11933;SDS011;6026;48.784;9.198;2023-06-19T12:50:52;1.20;;;1.20;;
11933;SDS011;6026;48.784;9.198;2023-06-19T12:53:18;1.20;;;1.20;;
11933;SDS011;6026;48.784;9.198;2023-06-19T12:55:44;1.20;;;1.20;;
11933;SDS011;6026;48.784;9.198;2023-06-19T12:58:10;1.20;;;1.20;;
11933;SDS011;6026;48.784;9.198;2023-06-19T13:00:36;1.20;;;1.20;;
11933;SDS011;6026;48.784;9.198;2023-06-19T13:03:02;1.20;;;1.20;;
11933;SDS011;6026;48.784;9.198;2023-06-19T13:05:28;1.20;;;1.20;;
11933;SDS011;6026;48.784;9.198;2023-06-19T13:07:54;1.10;;;1.10;;
11933;SDS011;6026;48.784;9.198;2023-06-19T13:10:19;1.10;;;1.10;;
11933;SDS011;6026;48.784;9.198;2023-06-19T13:12:45;1.10;;;1.10;;
11933;SDS011;6026;48.784;9.198;2023-06-19T13:15:11;1.20;;;1.20;;
11933;SDS011;6026;48.784;9.198;2023-06-19T13:17:36;1.17;;;1.17;;
11933;SDS011;6026;48.784;9.198;2023-06-19T13:20:02;1.10;;;1.10;;
11933;SDS011;6026;48.784;9.198;2023-06-19T13:22:29;1.10;;;1.10;;
11933;SDS011;6026;48.784;9.198;2023-06-19T13:24:55;1.10;;;1.10;;
11933;SDS011;6026;48.784;9.198;2023-06-19T13:27:21;1.10;;;1.10;;
11933;SDS011;6026;48.784;9.198;2023-06-19T13:29:47;1.10;;;1.10;;
11933;SDS011;6026;48.784;9.198;2023-06-19T13:32:12;1.05;;;1.05;;
11933;SDS011;6026;48.784;9.198;2023-06-19T13:34:38;1.10;;;1.10;;
11933;SDS011;6026;48.784;9.198;2023-06-19T13:37:03;1.10;;;1.10;;
11933;SDS011;6026;48.784;9.198;2023-06-19T13:39:29;1.10;;;1.10;;
11933;SDS011;6026;48.784;9.198;2023-06-19T13:41:55;1.10;;;1.10;;
11933;SDS011;6026;48.784;9.198;2023-06-19T13:44:21;1.10;;;1.10;;
11933;SDS011;6026;48.784;9.198;2023-06-19T13:46:47;1.10;;;1.10;;
11933;SDS011;6026;48.784;9.198;2023-06-19T13:49:12;1.10;;;1.10;;
11933;SDS011;6026;48.784;9.198;2023-06-19T13:51:38;1.10;;;1.10;;
11933;SDS011;6026;48.784;9.198;2023-06-19T13:54:04;1.10;;;1.10;;
11933;SDS011;6026;48.784;9.198;2023-06-19T13:56:30;1.10;;;1.10;;
11933;SDS011;6026;48.784;9.198;2023-06-19T13:58:59;1.10;;;1.10;;
11933;SDS011;6026;48.784;9.198;2023-06-19T14:01:25;1.10;;;1.10;;
11933;SDS011;6026;48.784;9.198;2023-06-19T14:03:51;1.10;;;1.10;;
11933;SDS011;6026;48.784;9.198;2023-06-19T14:06:17;1.00;;;1.00;;
11933;SDS011;6026;48.784;9.198;2023-06-19T14:08:43;1.10;;;1.10;;
11933;SDS011;6026;48.784;9.198;2023-06-19T14:11:08;1.10;;;1.10;;
11933;SDS011;6026;48.784;9.198;2023-06-19T14:13:34;1.05;;;1.05;;
11933;SDS011;6026;48.784;9.198;2023-06-19T14:16:00;1.10;;;1.10;;
11933;SDS011;6026;48.784;9.198;2023-06-19T14:18:26;1.08;;;1.08;;
11933;SDS011;6026;48.784;9.198;2023-06-19T14:20:52;1.05;;;1.05;;
11933;SDS011;6026;48.784;9.198;2023-06-19T14:23:17;1.10;;;1.10;;
11933;SDS011;6026;48.784;9.198;2023-06-19T14:25:43;1.10;;;1.10;;
11933;SDS011;6026;48.784;9.198;2023-06-19T14:28:08;1.10;;;1.10;;
11933;SDS011;6026;48.784;9.198;2023-06-19T14:30:34;1.10;;;1.10;;
11933;SDS011;6026;48.784;9.198;2023-06-19T14:33:00;1.10;;;1.10;;
11933;SDS011;6026;48.784;9.198;2023-06-19T14:35:26;1.13;;;1.13;;
11933;SDS011;6026;48.784;9.198;2023-06-19T14:37:52;1.10;;;1.10;;
11933;SDS011;6026;48.784;9.198;2023-06-19T14:40:17;1.10;;;1.10;;
11933;SDS011;6026;48.784;9.198;2023-06-19T14:42:43;1.13;;;1.13;;
11933;SDS011;6026;48.784;9.198;2023-06-19T14:45:09;1.10;;;1.10;;
11933;SDS011;6026;48.784;9.198;2023-06-19T14:47:35;1.10;;;1.10;;
11933;SDS011;6026;48.784;9.198;2023-06-19T14:50:00;1.10;;;1.10;;
11933;SDS011;6026;48.784;9.198;2023-06-19T14:52:26;1.10;;;1.10;;
11933;SDS011;6026;48.784;9.198;2023-06-19T14:54:52;1.10;;;1.10;;
11933;SDS011;6026;48.784;9.198;2023-06-19T14:57:17;1.20;;;1.20;;
11933;SDS011;6026;48.784;9.198;2023-06-19T14:59:43;1.10;;;1.10;;
11933;SDS011;6026;48.784;9.198;2023-06-19T15:02:08;1.10;;;1.10;;
11933;SDS011;6026;48.784;9.198;2023-06-19T15:04:36;1.10;;;1.10;;